sensor_id;sensor_type;location;lat;lon;timestamp;P1;durP1;ratioP1;P2;durP2;ratioP2
68653;SDS011;55636;51.108;13.622;2023-05-29T00:00:18;9.85;;;8.85;;
68653;SDS011;55636;51.108;13.622;2023-05-29T00:01:23;9.38;;;8.38;;
68653;SDS011;55636;51.108;13.622;2023-05-29T00:02:26;10.48;;;8.82;;
68653;SDS011;55636;51.108;13.622;2023-05-29T00:03:28;10.77;;;8.63;;
68653;SDS011;55636;51.108;13.622;2023-05-29T00:04:35;9.20;;;8.05;;
68653;SDS011;55636;51.108;13.622;2023-05-29T00:05:39;11.07;;;8.68;;
68653;SDS011;55636;51.108;13.622;2023-05-29T00:06:41;9.73;;;8.73;;
68653;SDS011;55636;51.108;13.622;2023-05-29T00:07:44;9.82;;;8.82;;
68653;SDS011;55636;51.108;13.622;2023-05-29T00:08:47;10.55;;;9.13;;
68653;SDS011;55636;51.108;13.622;2023-05-29T00:09:49;9.68;;;8.60;;
68653;SDS011;55636;51.108;13.622;2023-05-29T00:10:52;10.57;;;9.02;;
68653;SDS011;55636;51.108;13.622;2023-05-29T00:11:54;11.30;;;8.80;;
68653;SDS011;55636;51.108;13.622;2023-05-29T00:12:58;11.73;;;9.25;;
68653;SDS011;55636;51.108;13.622;2023-05-29T00:14:03;10.50;;;9.15;;
68653;SDS011;55636;51.108;13.622;2023-05-29T00:15:05;12.23;;;10.10;;
68653;SDS011;55636;51.108;13.622;2023-05-29T00:16:08;11.40;;;8.88;;
68653;SDS011;55636;51.108;13.622;2023-05-29T00:17:11;11.90;;;8.80;;
68653;SDS011;55636;51.108;13.622;2023-05-29T00:18:14;9.60;;;8.60;;
68653;SDS011;55636;51.108;13.622;2023-05-29T00:19:17;9.87;;;8.83;;
68653;SDS011;55636;51.108;13.622;2023-05-29T00:20:19;12.05;;;9.50;;
68653;SDS011;55636;51.108;13.622;2023-05-29T00:21:23;11.05;;;8.90;;
68653;SDS011;55636;51.108;13.622;2023-05-29T00:22:25;10.70;;;8.97;;
68653;SDS011;55636;51.108;13.622;2023-05-29T00:23:28;10.05;;;7.93;;
68653;SDS011;55636;51.108;13.622;2023-05-29T00:24:30;9.90;;;7.97;;
68653;SDS011;55636;51.108;13.622;2023-05-29T00:25:32;9.73;;;7.87;;
68653;SDS011;55636;51.108;13.622;2023-05-29T00:26:35;8.93;;;7.82;;
68653;SDS011;55636;51.108;13.622;2023-05-29T00:27:38;10.07;;;8.27;;
68653;SDS011;55636;51.108;13.622;2023-05-29T00:28:40;8.93;;;8.03;;
68653;SDS011;55636;51.108;13.622;2023-05-29T00:29:43;8.80;;;7.90;;
68653;SDS011;55636;51.108;13.622;2023-05-29T00:30:46;9.20;;;7.50;;
68653;SDS011;55636;51.108;13.622;2023-05-29T00:31:49;9.83;;;7.63;;
68653;SDS011;55636;51.108;13.622;2023-05-29T00:32:56;9.20;;;7.80;;
68653;SDS011;55636;51.108;13.622;2023-05-29T00:33:58;8.37;;;7.47;;
68653;SDS011;55636;51.108;13.622;2023-05-29T00:35:01;8.03;;;7.10;;
68653;SDS011;55636;51.108;13.622;2023-05-29T00:36:04;8.33;;;7.43;;
68653;SDS011;55636;51.108;13.622;2023-05-29T00:37:09;8.30;;;7.43;;
68653;SDS011;55636;51.108;13.622;2023-05-29T00:38:12;9.47;;;7.70;;
68653;SDS011;55636;51.108;13.622;2023-05-29T00:39:15;8.90;;;7.93;;
68653;SDS011;55636;51.108;13.622;2023-05-29T00:40:18;8.87;;;6.97;;
68653;SDS011;55636;51.108;13.622;2023-05-29T00:41:21;8.63;;;7.80;;
68653;SDS011;55636;51.108;13.622;2023-05-29T00:42:23;8.20;;;7.33;;
68653;SDS011;55636;51.108;13.622;2023-05-29T00:43:25;9.10;;;7.60;;
68653;SDS011;55636;51.108;13.622;2023-05-29T00:44:29;7.80;;;7.00;;
68653;SDS011;55636;51.108;13.622;2023-05-29T00:45:32;9.67;;;7.97;;
68653;SDS011;55636;51.108;13.622;2023-05-29T00:46:38;9.00;;;7.53;;
68653;SDS011;55636;51.108;13.622;2023-05-29T00:47:43;8.47;;;6.93;;
68653;SDS011;55636;51.108;13.622;2023-05-29T00:48:47;8.83;;;7.73;;
68653;SDS011;55636;51.108;13.622;2023-05-29T00:49:51;8.83;;;8.00;;
68653;SDS011;55636;51.108;13.622;2023-05-29T00:50:54;8.60;;;7.63;;
68653;SDS011;55636;51.108;13.622;2023-05-29T00:51:57;10.33;;;7.87;;
68653;SDS011;55636;51.108;13.622;2023-05-29T00:53:00;9.53;;;8.10;;
68653;SDS011;55636;51.108;13.622;2023-05-29T00:54:07;9.20;;;7.70;;
68653;SDS011;55636;51.108;13.622;2023-05-29T00:55:10;9.17;;;7.90;;
68653;SDS011;55636;51.108;13.622;2023-05-29T00:56:14;8.70;;;7.80;;
68653;SDS011;55636;51.108;13.622;2023-05-29T00:57:17;10.80;;;8.17;;
68653;SDS011;55636;51.108;13.622;2023-05-29T00:58:20;9.17;;;8.20;;
68653;SDS011;55636;51.108;13.622;2023-05-29T00:59:22;10.13;;;7.93;;
68653;SDS011;55636;51.108;13.622;2023-05-29T01:00:26;10.43;;;7.80;;
68653;SDS011;55636;51.108;13.622;2023-05-29T01:01:28;10.53;;;8.20;;
68653;SDS011;55636;51.108;13.622;2023-05-29T01:02:34;8.93;;;8.03;;
68653;SDS011;55636;51.108;13.622;2023-05-29T01:03:38;9.60;;;8.10;;
68653;SDS011;55636;51.108;13.622;2023-05-29T01:04:44;9.87;;;8.70;;
68653;SDS011;55636;51.108;13.622;2023-05-29T01:05:47;10.00;;;8.17;;
68653;SDS011;55636;51.108;13.622;2023-05-29T01:06:49;9.53;;;7.77;;
68653;SDS011;55636;51.108;13.622;2023-05-29T01:07:53;9.57;;;8.20;;
68653;SDS011;55636;51.108;13.622;2023-05-29T01:08:56;10.07;;;8.03;;
68653;SDS011;55636;51.108;13.622;2023-05-29T01:09:58;9.97;;;7.93;;
68653;SDS011;55636;51.108;13.622;2023-05-29T01:11:08;9.43;;;7.97;;
68653;SDS011;55636;51.108;13.622;2023-05-29T01:13:40;10.00;;;8.73;;
68653;SDS011;55636;51.108;13.622;2023-05-29T01:16:27;11.80;;;9.47;;
68653;SDS011;55636;51.108;13.622;2023-05-29T01:19:11;9.80;;;8.60;;
68653;SDS011;55636;51.108;13.622;2023-05-29T01:20:36;10.47;;;9.30;;
68653;SDS011;55636;51.108;13.622;2023-05-29T01:24:03;8.90;;;8.00;;
68653;SDS011;55636;51.108;13.622;2023-05-29T01:24:57;10.47;;;8.87;;
68653;SDS011;55636;51.108;13.622;2023-05-29T01:26:11;9.47;;;8.53;;
68653;SDS011;55636;51.108;13.622;2023-05-29T01:27:32;9.40;;;8.40;;
68653;SDS011;55636;51.108;13.622;2023-05-29T01:28:44;10.03;;;8.90;;
68653;SDS011;55636;51.108;13.622;2023-05-29T01:29:49;12.13;;;9.17;;
68653;SDS011;55636;51.108;13.622;2023-05-29T01:30:55;13.20;;;8.83;;
68653;SDS011;55636;51.108;13.622;2023-05-29T01:32:00;12.10;;;9.13;;
68653;SDS011;55636;51.108;13.622;2023-05-29T01:33:03;9.77;;;8.67;;
68653;SDS011;55636;51.108;13.622;2023-05-29T01:34:06;10.70;;;9.10;;
68653;SDS011;55636;51.108;13.622;2023-05-29T01:35:09;9.60;;;8.60;;
68653;SDS011;55636;51.108;13.622;2023-05-29T01:36:13;10.33;;;8.63;;
68653;SDS011;55636;51.108;13.622;2023-05-29T01:37:16;9.90;;;8.80;;
68653;SDS011;55636;51.108;13.622;2023-05-29T01:38:19;11.40;;;8.93;;
68653;SDS011;55636;51.108;13.622;2023-05-29T01:39:22;9.87;;;8.83;;
68653;SDS011;55636;51.108;13.622;2023-05-29T01:40:26;11.30;;;8.90;;
68653;SDS011;55636;51.108;13.622;2023-05-29T01:41:29;11.07;;;8.70;;
68653;SDS011;55636;51.108;13.622;2023-05-29T01:42:33;10.47;;;9.07;;
68653;SDS011;55636;51.108;13.622;2023-05-29T01:43:37;12.13;;;9.63;;
68653;SDS011;55636;51.108;13.622;2023-05-29T01:44:39;10.73;;;9.00;;
68653;SDS011;55636;51.108;13.622;2023-05-29T01:45:42;13.70;;;9.77;;
68653;SDS011;55636;51.108;13.622;2023-05-29T01:46:47;11.93;;;9.17;;
68653;SDS011;55636;51.108;13.622;2023-05-29T01:47:52;11.57;;;8.83;;
68653;SDS011;55636;51.108;13.622;2023-05-29T01:48:56;10.60;;;9.20;;
68653;SDS011;55636;51.108;13.622;2023-05-29T01:49:59;11.77;;;8.70;;
68653;SDS011;55636;51.108;13.622;2023-05-29T01:51:02;11.17;;;8.73;;
68653;SDS011;55636;51.108;13.622;2023-05-29T01:52:05;10.77;;;8.63;;
68653;SDS011;55636;51.108;13.622;2023-05-29T01:53:08;9.43;;;8.43;;
68653;SDS011;55636;51.108;13.622;2023-05-29T01:54:10;12.37;;;8.63;;
68653;SDS011;55636;51.108;13.622;2023-05-29T01:55:13;11.90;;;8.90;;
68653;SDS011;55636;51.108;13.622;2023-05-29T01:56:15;10.23;;;8.57;;
68653;SDS011;55636;51.108;13.622;2023-05-29T01:57:18;11.03;;;8.67;;
68653;SDS011;55636;51.108;13.622;2023-05-29T01:58:22;11.87;;;9.10;;
68653;SDS011;55636;51.108;13.622;2023-05-29T01:59:26;10.13;;;8.70;;
68653;SDS011;55636;51.108;13.622;2023-05-29T02:00:29;9.93;;;8.47;;
68653;SDS011;55636;51.108;13.622;2023-05-29T02:01:32;10.17;;;9.07;;
68653;SDS011;55636;51.108;13.622;2023-05-29T02:02:36;10.73;;;9.07;;
68653;SDS011;55636;51.108;13.622;2023-05-29T02:03:40;10.37;;;8.80;;
68653;SDS011;55636;51.108;13.622;2023-05-29T02:04:42;10.47;;;8.80;;
68653;SDS011;55636;51.108;13.622;2023-05-29T02:05:46;9.77;;;8.30;;
68653;SDS011;55636;51.108;13.622;2023-05-29T02:06:49;11.27;;;9.20;;
68653;SDS011;55636;51.108;13.622;2023-05-29T02:07:51;9.80;;;8.63;;
68653;SDS011;55636;51.108;13.622;2023-05-29T02:08:54;10.63;;;8.80;;
68653;SDS011;55636;51.108;13.622;2023-05-29T02:09:56;11.37;;;8.67;;
68653;SDS011;55636;51.108;13.622;2023-05-29T02:10:59;9.90;;;8.67;;
68653;SDS011;55636;51.108;13.622;2023-05-29T02:12:01;10.93;;;8.87;;
68653;SDS011;55636;51.108;13.622;2023-05-29T02:13:04;11.53;;;8.93;;
68653;SDS011;55636;51.108;13.622;2023-05-29T02:14:07;10.43;;;9.13;;
68653;SDS011;55636;51.108;13.622;2023-05-29T02:15:09;11.03;;;8.90;;
68653;SDS011;55636;51.108;13.622;2023-05-29T02:16:13;11.17;;;9.20;;
68653;SDS011;55636;51.108;13.622;2023-05-29T02:17:17;11.93;;;10.13;;
68653;SDS011;55636;51.108;13.622;2023-05-29T02:18:21;11.53;;;9.47;;
68653;SDS011;55636;51.108;13.622;2023-05-29T02:19:23;11.50;;;9.53;;
68653;SDS011;55636;51.108;13.622;2023-05-29T02:20:27;11.07;;;9.17;;
68653;SDS011;55636;51.108;13.622;2023-05-29T02:21:30;12.27;;;9.80;;
68653;SDS011;55636;51.108;13.622;2023-05-29T02:22:33;11.60;;;9.67;;
68653;SDS011;55636;51.108;13.622;2023-05-29T02:23:35;11.70;;;9.93;;
68653;SDS011;55636;51.108;13.622;2023-05-29T02:24:38;11.37;;;9.23;;
68653;SDS011;55636;51.108;13.622;2023-05-29T02:25:41;11.90;;;9.23;;
68653;SDS011;55636;51.108;13.622;2023-05-29T02:26:45;11.53;;;9.10;;
68653;SDS011;55636;51.108;13.622;2023-05-29T02:27:49;11.23;;;9.33;;
68653;SDS011;55636;51.108;13.622;2023-05-29T02:28:52;11.37;;;9.23;;
68653;SDS011;55636;51.108;13.622;2023-05-29T02:29:54;10.20;;;9.10;;
68653;SDS011;55636;51.108;13.622;2023-05-29T02:30:57;12.03;;;9.07;;
68653;SDS011;55636;51.108;13.622;2023-05-29T02:31:59;11.03;;;8.90;;
68653;SDS011;55636;51.108;13.622;2023-05-29T02:33:02;12.37;;;9.23;;
68653;SDS011;55636;51.108;13.622;2023-05-29T02:34:08;10.73;;;9.10;;
68653;SDS011;55636;51.108;13.622;2023-05-29T02:35:13;10.73;;;9.10;;
68653;SDS011;55636;51.108;13.622;2023-05-29T02:36:20;12.73;;;9.83;;
68653;SDS011;55636;51.108;13.622;2023-05-29T02:37:22;12.13;;;9.40;;
68653;SDS011;55636;51.108;13.622;2023-05-29T02:38:27;10.97;;;9.43;;
68653;SDS011;55636;51.108;13.622;2023-05-29T02:39:29;11.70;;;9.40;;
68653;SDS011;55636;51.108;13.622;2023-05-29T02:40:32;12.50;;;9.33;;
68653;SDS011;55636;51.108;13.622;2023-05-29T02:41:35;12.80;;;9.70;;
68653;SDS011;55636;51.108;13.622;2023-05-29T02:42:37;12.33;;;9.80;;
68653;SDS011;55636;51.108;13.622;2023-05-29T02:43:39;13.57;;;9.63;;
68653;SDS011;55636;51.108;13.622;2023-05-29T02:44:42;12.37;;;9.37;;
68653;SDS011;55636;51.108;13.622;2023-05-29T02:45:44;11.73;;;9.07;;
68653;SDS011;55636;51.108;13.622;2023-05-29T02:46:47;9.93;;;8.50;;
68653;SDS011;55636;51.108;13.622;2023-05-29T02:47:53;8.47;;;7.50;;
68653;SDS011;55636;51.108;13.622;2023-05-29T02:48:55;10.57;;;7.43;;
68653;SDS011;55636;51.108;13.622;2023-05-29T02:49:58;12.43;;;7.97;;
68653;SDS011;55636;51.108;13.622;2023-05-29T02:51:00;7.83;;;6.93;;
68653;SDS011;55636;51.108;13.622;2023-05-29T02:52:02;7.77;;;6.93;;
68653;SDS011;55636;51.108;13.622;2023-05-29T02:53:06;8.23;;;7.03;;
68653;SDS011;55636;51.108;13.622;2023-05-29T02:54:09;7.10;;;6.40;;
68653;SDS011;55636;51.108;13.622;2023-05-29T02:55:15;7.50;;;6.10;;
68653;SDS011;55636;51.108;13.622;2023-05-29T02:56:18;8.00;;;6.43;;
68653;SDS011;55636;51.108;13.622;2023-05-29T02:57:21;7.00;;;6.30;;
68653;SDS011;55636;51.108;13.622;2023-05-29T02:58:23;7.03;;;5.93;;
68653;SDS011;55636;51.108;13.622;2023-05-29T02:59:25;7.27;;;5.83;;
68653;SDS011;55636;51.108;13.622;2023-05-29T03:00:29;7.80;;;6.17;;
68653;SDS011;55636;51.108;13.622;2023-05-29T03:01:32;6.57;;;5.87;;
68653;SDS011;55636;51.108;13.622;2023-05-29T03:02:35;6.37;;;5.60;;
68653;SDS011;55636;51.108;13.622;2023-05-29T03:03:38;6.10;;;5.43;;
68653;SDS011;55636;51.108;13.622;2023-05-29T03:04:40;6.40;;;5.70;;
68653;SDS011;55636;51.108;13.622;2023-05-29T03:05:43;7.27;;;6.10;;
68653;SDS011;55636;51.108;13.622;2023-05-29T03:06:46;7.17;;;5.97;;
68653;SDS011;55636;51.108;13.622;2023-05-29T03:07:49;6.33;;;5.67;;
68653;SDS011;55636;51.108;13.622;2023-05-29T03:08:51;7.30;;;5.67;;
68653;SDS011;55636;51.108;13.622;2023-05-29T03:09:54;6.33;;;5.73;;
68653;SDS011;55636;51.108;13.622;2023-05-29T03:11:01;6.30;;;5.37;;
68653;SDS011;55636;51.108;13.622;2023-05-29T03:12:03;6.17;;;5.47;;
68653;SDS011;55636;51.108;13.622;2023-05-29T03:13:07;9.43;;;5.60;;
68653;SDS011;55636;51.108;13.622;2023-05-29T03:14:13;7.20;;;4.97;;
68653;SDS011;55636;51.108;13.622;2023-05-29T03:15:15;5.97;;;4.97;;
68653;SDS011;55636;51.108;13.622;2023-05-29T03:16:19;5.53;;;4.90;;
68653;SDS011;55636;51.108;13.622;2023-05-29T03:17:22;5.80;;;4.77;;
68653;SDS011;55636;51.108;13.622;2023-05-29T03:18:27;5.87;;;4.80;;
68653;SDS011;55636;51.108;13.622;2023-05-29T03:19:30;5.77;;;4.63;;
68653;SDS011;55636;51.108;13.622;2023-05-29T03:20:33;5.27;;;4.57;;
68653;SDS011;55636;51.108;13.622;2023-05-29T03:21:35;4.87;;;4.37;;
68653;SDS011;55636;51.108;13.622;2023-05-29T03:22:39;4.73;;;4.23;;
68653;SDS011;55636;51.108;13.622;2023-05-29T03:23:43;5.10;;;4.60;;
68653;SDS011;55636;51.108;13.622;2023-05-29T03:24:47;5.90;;;4.70;;
68653;SDS011;55636;51.108;13.622;2023-05-29T03:25:49;5.30;;;4.40;;
68653;SDS011;55636;51.108;13.622;2023-05-29T03:26:52;5.10;;;4.60;;
68653;SDS011;55636;51.108;13.622;2023-05-29T03:27:57;5.13;;;4.53;;
68653;SDS011;55636;51.108;13.622;2023-05-29T03:29:00;5.10;;;4.17;;
68653;SDS011;55636;51.108;13.622;2023-05-29T03:30:03;5.67;;;4.80;;
68653;SDS011;55636;51.108;13.622;2023-05-29T03:31:07;5.63;;;4.33;;
68653;SDS011;55636;51.108;13.622;2023-05-29T03:32:10;5.53;;;4.77;;
68653;SDS011;55636;51.108;13.622;2023-05-29T03:33:13;5.57;;;4.93;;
68653;SDS011;55636;51.108;13.622;2023-05-29T03:34:47;5.80;;;4.70;;
68653;SDS011;55636;51.108;13.622;2023-05-29T03:35:50;6.53;;;4.80;;
68653;SDS011;55636;51.108;13.622;2023-05-29T03:36:52;6.90;;;4.87;;
68653;SDS011;55636;51.108;13.622;2023-05-29T03:37:57;5.80;;;5.07;;
68653;SDS011;55636;51.108;13.622;2023-05-29T03:38:59;5.93;;;5.10;;
68653;SDS011;55636;51.108;13.622;2023-05-29T03:40:02;6.23;;;5.10;;
68653;SDS011;55636;51.108;13.622;2023-05-29T03:41:06;6.50;;;5.17;;
68653;SDS011;55636;51.108;13.622;2023-05-29T03:42:09;5.70;;;4.77;;
68653;SDS011;55636;51.108;13.622;2023-05-29T03:43:11;5.43;;;4.93;;
68653;SDS011;55636;51.108;13.622;2023-05-29T03:44:14;6.00;;;4.70;;
68653;SDS011;55636;51.108;13.622;2023-05-29T03:45:16;7.73;;;5.10;;
68653;SDS011;55636;51.108;13.622;2023-05-29T03:46:19;6.10;;;5.10;;
68653;SDS011;55636;51.108;13.622;2023-05-29T03:47:23;5.47;;;4.90;;
68653;SDS011;55636;51.108;13.622;2023-05-29T03:48:27;6.70;;;5.57;;
68653;SDS011;55636;51.108;13.622;2023-05-29T03:49:29;6.13;;;5.00;;
68653;SDS011;55636;51.108;13.622;2023-05-29T03:50:32;6.57;;;4.90;;
68653;SDS011;55636;51.108;13.622;2023-05-29T03:51:34;6.43;;;4.90;;
68653;SDS011;55636;51.108;13.622;2023-05-29T03:52:38;7.53;;;5.57;;
68653;SDS011;55636;51.108;13.622;2023-05-29T03:53:41;6.00;;;5.33;;
68653;SDS011;55636;51.108;13.622;2023-05-29T03:54:44;5.63;;;5.00;;
68653;SDS011;55636;51.108;13.622;2023-05-29T03:55:46;5.97;;;5.10;;
68653;SDS011;55636;51.108;13.622;2023-05-29T03:56:49;5.90;;;5.20;;
68653;SDS011;55636;51.108;13.622;2023-05-29T03:57:52;5.50;;;4.93;;
68653;SDS011;55636;51.108;13.622;2023-05-29T03:58:55;6.90;;;5.27;;
68653;SDS011;55636;51.108;13.622;2023-05-29T03:59:58;7.13;;;5.60;;
68653;SDS011;55636;51.108;13.622;2023-05-29T04:01:00;5.93;;;5.33;;
68653;SDS011;55636;51.108;13.622;2023-05-29T04:02:04;7.23;;;6.00;;
68653;SDS011;55636;51.108;13.622;2023-05-29T04:03:06;7.77;;;5.70;;
68653;SDS011;55636;51.108;13.622;2023-05-29T04:04:10;7.20;;;5.60;;
68653;SDS011;55636;51.108;13.622;2023-05-29T04:05:13;7.50;;;5.83;;
68653;SDS011;55636;51.108;13.622;2023-05-29T04:06:16;6.00;;;5.40;;
68653;SDS011;55636;51.108;13.622;2023-05-29T04:07:19;6.50;;;5.80;;
68653;SDS011;55636;51.108;13.622;2023-05-29T04:08:23;6.67;;;5.70;;
68653;SDS011;55636;51.108;13.622;2023-05-29T04:09:25;6.73;;;5.57;;
68653;SDS011;55636;51.108;13.622;2023-05-29T04:10:28;7.73;;;5.63;;
68653;SDS011;55636;51.108;13.622;2023-05-29T04:11:30;7.10;;;5.37;;
68653;SDS011;55636;51.108;13.622;2023-05-29T04:12:38;7.63;;;5.43;;
68653;SDS011;55636;51.108;13.622;2023-05-29T04:13:40;6.60;;;5.90;;
68653;SDS011;55636;51.108;13.622;2023-05-29T04:14:44;6.73;;;5.77;;
68653;SDS011;55636;51.108;13.622;2023-05-29T04:15:47;6.37;;;5.70;;
68653;SDS011;55636;51.108;13.622;2023-05-29T04:16:51;7.43;;;6.00;;
68653;SDS011;55636;51.108;13.622;2023-05-29T04:17:54;7.07;;;6.00;;
68653;SDS011;55636;51.108;13.622;2023-05-29T04:18:57;8.00;;;5.97;;
68653;SDS011;55636;51.108;13.622;2023-05-29T04:20:03;6.80;;;6.10;;
68653;SDS011;55636;51.108;13.622;2023-05-29T04:21:11;7.50;;;6.27;;
68653;SDS011;55636;51.108;13.622;2023-05-29T04:22:14;7.10;;;6.10;;
68653;SDS011;55636;51.108;13.622;2023-05-29T04:23:17;7.27;;;6.00;;
68653;SDS011;55636;51.108;13.622;2023-05-29T04:24:19;7.30;;;6.18;;
68653;SDS011;55636;51.108;13.622;2023-05-29T04:25:24;7.35;;;6.32;;
68653;SDS011;55636;51.108;13.622;2023-05-29T04:26:27;7.80;;;6.20;;
68653;SDS011;55636;51.108;13.622;2023-05-29T04:27:30;6.70;;;6.00;;
68653;SDS011;55636;51.108;13.622;2023-05-29T04:28:35;8.23;;;6.10;;
68653;SDS011;55636;51.108;13.622;2023-05-29T04:29:42;7.97;;;6.00;;
68653;SDS011;55636;51.108;13.622;2023-05-29T04:30:45;7.72;;;6.25;;
68653;SDS011;55636;51.108;13.622;2023-05-29T04:31:48;7.30;;;6.30;;
68653;SDS011;55636;51.108;13.622;2023-05-29T04:32:51;8.65;;;6.18;;
68653;SDS011;55636;51.108;13.622;2023-05-29T04:33:55;6.55;;;5.78;;
68653;SDS011;55636;51.108;13.622;2023-05-29T04:34:59;8.00;;;6.30;;
68653;SDS011;55636;51.108;13.622;2023-05-29T04:36:08;6.75;;;6.07;;
68653;SDS011;55636;51.108;13.622;2023-05-29T04:37:13;6.93;;;6.22;;
68653;SDS011;55636;51.108;13.622;2023-05-29T04:38:18;6.88;;;6.15;;
68653;SDS011;55636;51.108;13.622;2023-05-29T04:39:28;6.65;;;5.88;;
68653;SDS011;55636;51.108;13.622;2023-05-29T04:40:31;7.25;;;6.40;;
68653;SDS011;55636;51.108;13.622;2023-05-29T04:41:36;8.77;;;6.28;;
68653;SDS011;55636;51.108;13.622;2023-05-29T04:42:44;7.57;;;6.28;;
68653;SDS011;55636;51.108;13.622;2023-05-29T04:43:50;7.32;;;6.20;;
68653;SDS011;55636;51.108;13.622;2023-05-29T04:45:00;7.63;;;6.15;;
68653;SDS011;55636;51.108;13.622;2023-05-29T04:46:03;6.93;;;5.90;;
68653;SDS011;55636;51.108;13.622;2023-05-29T04:47:09;7.00;;;6.30;;
68653;SDS011;55636;51.108;13.622;2023-05-29T04:48:11;7.85;;;6.38;;
68653;SDS011;55636;51.108;13.622;2023-05-29T04:49:14;7.22;;;6.43;;
68653;SDS011;55636;51.108;13.622;2023-05-29T04:50:16;7.75;;;6.63;;
68653;SDS011;55636;51.108;13.622;2023-05-29T04:51:19;7.95;;;6.32;;
68653;SDS011;55636;51.108;13.622;2023-05-29T04:52:23;7.90;;;6.40;;
68653;SDS011;55636;51.108;13.622;2023-05-29T04:53:26;7.85;;;6.28;;
68653;SDS011;55636;51.108;13.622;2023-05-29T04:54:28;8.10;;;6.60;;
68653;SDS011;55636;51.108;13.622;2023-05-29T04:55:33;7.47;;;6.30;;
68653;SDS011;55636;51.108;13.622;2023-05-29T04:56:36;7.03;;;5.90;;
68653;SDS011;55636;51.108;13.622;2023-05-29T04:57:39;7.57;;;6.60;;
68653;SDS011;55636;51.108;13.622;2023-05-29T04:58:44;10.00;;;6.68;;
68653;SDS011;55636;51.108;13.622;2023-05-29T04:59:48;7.85;;;6.60;;
68653;SDS011;55636;51.108;13.622;2023-05-29T05:00:51;7.57;;;6.78;;
68653;SDS011;55636;51.108;13.622;2023-05-29T05:01:53;7.45;;;6.65;;
68653;SDS011;55636;51.108;13.622;2023-05-29T05:02:56;8.07;;;7.05;;
68653;SDS011;55636;51.108;13.622;2023-05-29T05:03:59;7.75;;;6.95;;
68653;SDS011;55636;51.108;13.622;2023-05-29T05:05:02;7.75;;;6.68;;
68653;SDS011;55636;51.108;13.622;2023-05-29T05:06:05;7.82;;;6.65;;
68653;SDS011;55636;51.108;13.622;2023-05-29T05:07:11;7.50;;;6.72;;
68653;SDS011;55636;51.108;13.622;2023-05-29T05:08:15;7.05;;;6.35;;
68653;SDS011;55636;51.108;13.622;2023-05-29T05:09:18;6.90;;;6.20;;
68653;SDS011;55636;51.108;13.622;2023-05-29T05:10:22;10.75;;;6.68;;
68653;SDS011;55636;51.108;13.622;2023-05-29T05:11:24;7.55;;;6.22;;
68653;SDS011;55636;51.108;13.622;2023-05-29T05:12:27;7.90;;;6.20;;
68653;SDS011;55636;51.108;13.622;2023-05-29T05:13:30;8.95;;;6.60;;
68653;SDS011;55636;51.108;13.622;2023-05-29T05:14:33;7.45;;;6.57;;
68653;SDS011;55636;51.108;13.622;2023-05-29T05:15:36;8.15;;;6.38;;
68653;SDS011;55636;51.108;13.622;2023-05-29T05:16:39;7.80;;;6.32;;
68653;SDS011;55636;51.108;13.622;2023-05-29T05:17:42;7.22;;;6.25;;
68653;SDS011;55636;51.108;13.622;2023-05-29T05:18:44;7.13;;;6.38;;
68653;SDS011;55636;51.108;13.622;2023-05-29T05:19:48;8.57;;;6.20;;
68653;SDS011;55636;51.108;13.622;2023-05-29T05:20:51;7.97;;;6.50;;
68653;SDS011;55636;51.108;13.622;2023-05-29T05:21:54;7.07;;;6.15;;
68653;SDS011;55636;51.108;13.622;2023-05-29T05:22:57;8.05;;;6.60;;
68653;SDS011;55636;51.108;13.622;2023-05-29T05:24:02;6.82;;;6.13;;
68653;SDS011;55636;51.108;13.622;2023-05-29T05:25:05;7.10;;;6.13;;
68653;SDS011;55636;51.108;13.622;2023-05-29T05:26:07;8.73;;;6.68;;
68653;SDS011;55636;51.108;13.622;2023-05-29T05:27:10;6.90;;;5.97;;
68653;SDS011;55636;51.108;13.622;2023-05-29T05:28:13;6.60;;;5.90;;
68653;SDS011;55636;51.108;13.622;2023-05-29T05:29:15;6.45;;;5.85;;
68653;SDS011;55636;51.108;13.622;2023-05-29T05:30:18;6.65;;;5.97;;
68653;SDS011;55636;51.108;13.622;2023-05-29T05:31:21;7.35;;;6.28;;
68653;SDS011;55636;51.108;13.622;2023-05-29T05:32:24;7.43;;;6.35;;
68653;SDS011;55636;51.108;13.622;2023-05-29T05:33:35;7.47;;;6.32;;
68653;SDS011;55636;51.108;13.622;2023-05-29T05:34:37;7.60;;;6.30;;
68653;SDS011;55636;51.108;13.622;2023-05-29T05:35:41;9.73;;;6.47;;
68653;SDS011;55636;51.108;13.622;2023-05-29T05:36:43;7.47;;;6.63;;
68653;SDS011;55636;51.108;13.622;2023-05-29T05:37:48;7.15;;;6.40;;
68653;SDS011;55636;51.108;13.622;2023-05-29T05:38:51;7.10;;;6.20;;
68653;SDS011;55636;51.108;13.622;2023-05-29T05:39:53;6.80;;;6.13;;
68653;SDS011;55636;51.108;13.622;2023-05-29T05:40:56;7.35;;;6.57;;
68653;SDS011;55636;51.108;13.622;2023-05-29T05:42:04;7.13;;;6.43;;
68653;SDS011;55636;51.108;13.622;2023-05-29T05:43:21;7.43;;;6.63;;
68653;SDS011;55636;51.108;13.622;2023-05-29T05:44:59;8.60;;;6.63;;
68653;SDS011;55636;51.108;13.622;2023-05-29T05:46:02;7.20;;;6.50;;
68653;SDS011;55636;51.108;13.622;2023-05-29T05:47:06;7.07;;;5.88;;
68653;SDS011;55636;51.108;13.622;2023-05-29T05:48:11;8.02;;;6.18;;
68653;SDS011;55636;51.108;13.622;2023-05-29T05:49:14;6.57;;;5.97;;
68653;SDS011;55636;51.108;13.622;2023-05-29T05:50:19;6.95;;;6.05;;
68653;SDS011;55636;51.108;13.622;2023-05-29T05:51:23;6.65;;;5.85;;
68653;SDS011;55636;51.108;13.622;2023-05-29T05:52:26;7.13;;;6.43;;
68653;SDS011;55636;51.108;13.622;2023-05-29T05:53:32;6.97;;;6.25;;
68653;SDS011;55636;51.108;13.622;2023-05-29T05:54:35;7.15;;;6.45;;
68653;SDS011;55636;51.108;13.622;2023-05-29T05:55:37;7.65;;;6.30;;
68653;SDS011;55636;51.108;13.622;2023-05-29T05:56:40;7.90;;;5.97;;
68653;SDS011;55636;51.108;13.622;2023-05-29T05:57:44;7.95;;;6.28;;
68653;SDS011;55636;51.108;13.622;2023-05-29T05:58:48;7.25;;;6.38;;
68653;SDS011;55636;51.108;13.622;2023-05-29T05:59:54;8.85;;;6.10;;
68653;SDS011;55636;51.108;13.622;2023-05-29T06:00:58;7.57;;;6.05;;
68653;SDS011;55636;51.108;13.622;2023-05-29T06:02:01;6.88;;;6.10;;
68653;SDS011;55636;51.108;13.622;2023-05-29T06:03:09;7.05;;;6.35;;
68653;SDS011;55636;51.108;13.622;2023-05-29T06:04:32;7.45;;;5.88;;
68653;SDS011;55636;51.108;13.622;2023-05-29T06:05:34;6.63;;;5.80;;
68653;SDS011;55636;51.108;13.622;2023-05-29T06:06:38;6.53;;;5.93;;
68653;SDS011;55636;51.108;13.622;2023-05-29T06:07:42;6.53;;;5.85;;
68653;SDS011;55636;51.108;13.622;2023-05-29T06:08:45;9.45;;;5.63;;
68653;SDS011;55636;51.108;13.622;2023-05-29T06:09:50;6.10;;;5.50;;
68653;SDS011;55636;51.108;13.622;2023-05-29T06:10:52;6.82;;;5.70;;
68653;SDS011;55636;51.108;13.622;2023-05-29T06:11:55;6.35;;;5.68;;
68653;SDS011;55636;51.108;13.622;2023-05-29T06:12:58;7.88;;;5.82;;
68653;SDS011;55636;51.108;13.622;2023-05-29T06:14:06;6.63;;;5.82;;
68653;SDS011;55636;51.108;13.622;2023-05-29T06:15:09;6.15;;;5.53;;
68653;SDS011;55636;51.108;13.622;2023-05-29T06:16:11;6.55;;;5.65;;
68653;SDS011;55636;51.108;13.622;2023-05-29T06:17:14;8.45;;;6.00;;
68653;SDS011;55636;51.108;13.622;2023-05-29T06:18:17;7.13;;;5.80;;
68653;SDS011;55636;51.108;13.622;2023-05-29T06:19:19;6.25;;;5.65;;
68653;SDS011;55636;51.108;13.622;2023-05-29T06:20:31;6.60;;;5.60;;
68653;SDS011;55636;51.108;13.622;2023-05-29T06:21:34;6.38;;;5.60;;
68653;SDS011;55636;51.108;13.622;2023-05-29T06:22:37;6.85;;;5.60;;
68653;SDS011;55636;51.108;13.622;2023-05-29T06:23:41;6.78;;;5.72;;
68653;SDS011;55636;51.108;13.622;2023-05-29T06:24:44;6.22;;;5.63;;